African Goshawk — C6BT7 — position and weather

sailwx.info

Track history (hours):
 
Tides and Currents Weather Stations Pressure Air Temp Water Temp Dewpoint Dewpoint Depression Visibility Wind Speed Wind Dir Waves Ship Positions

African Goshawk

Last reported at 2018-Jul-15 12:07 UTC. Time now 2018-Jul-23 11:55 UTC.
Position S 34°25' E 017°39'.

Length 180 m; draft 10.4 m.

Type: Cargo ship. MMSI: 311000361.

Date/timePositionNaut miles runAvg speedWind from/ knotsBaromVisibWave heightAir tempDewpointWater temp
2018-Jul-15 12:07S 34°25' E 017°39'110.5
2018-Jul-15 12:00S 34°26' E 017°41'710.7
2018-Jul-15 11:20S 34°28' E 017°49'410.7
2018-Jul-15 10:59S 34°29' E 017°53'510.9
2018-Jul-15 10:30S 34°31' E 017°59'710.8
2018-Jul-15 09:53S 34°33' E 018°06'410.8
2018-Jul-15 09:30S 34°34' E 018°11'510.8
2018-Jul-15 09:00S 34°36' E 018°18'510.8
2018-Jul-15 08:30S 34°38' E 018°24'810.7
2018-Jul-15 07:45S 34°41' E 018°33'310.7
2018-Jul-15 07:29S 34°42' E 018°36'510.7
2018-Jul-15 07:00S 34°44' E 018°42'  
Track history (hours):
 
Tides and Currents Weather Stations Pressure Air Temp Water Temp Dewpoint Dewpoint Depression Visibility Wind Speed Wind Dir Waves Ship Positions

African Goshawk

Last reported at 2018-Jul-15 12:07 UTC. Time now 2018-Jul-23 11:55 UTC.
Position S 34°25' E 017°39'.

Length 180 m; draft 10.4 m.

Type: Cargo ship. MMSI: 311000361.

Date/timePositionNaut miles runAvg speedWind from/ knotsBaromVisibWave heightAir tempDewpointWater temp
2018-Jul-15 12:07S 34°25' E 017°39'110.5
2018-Jul-15 12:00S 34°26' E 017°41'710.7
2018-Jul-15 11:20S 34°28' E 017°49'410.7
2018-Jul-15 10:59S 34°29' E 017°53'510.9
2018-Jul-15 10:30S 34°31' E 017°59'710.8
2018-Jul-15 09:53S 34°33' E 018°06'410.8
2018-Jul-15 09:30S 34°34' E 018°11'510.8
2018-Jul-15 09:00S 34°36' E 018°18'510.8
2018-Jul-15 08:30S 34°38' E 018°24'810.7
2018-Jul-15 07:45S 34°41' E 018°33'310.7
2018-Jul-15 07:29S 34°42' E 018°36'510.7
2018-Jul-15 07:00S 34°44' E 018°42'  

Dump ship's entire track history